Time;durP1;ratioP1;P1;durP2;ratioP2;P2;SDS_P1;SDS_P2;PMS_P1;PMS_P2;Temp;Humidity;BMP_temperature;BMP_pressure;BME280_temperature;BME280_humidity;BME280_pressure;Samples;Min_cycle;Max_cycle;Signal;HPM_P1;HPM_P2
2022/09/22 00:01:27;;;;;;;11.43;4.90;;;7.70;99.90;;;;;;5064322;28;20490;-59
2022/09/22 00:03:56;;;;;;;10.95;5.30;;;7.80;99.90;;;;;;5066135;28;20112;-60
2022/09/22 00:06:24;;;;;;;11.20;4.90;;;7.70;99.90;;;;;;5065108;28;20416;-56
2022/09/22 00:08:52;;;;;;;11.32;4.85;;;7.70;99.90;;;;;;5060130;28;20024;-57
2022/09/22 00:11:20;;;;;;;10.85;4.72;;;7.70;99.90;;;;;;5061768;28;20017;-57
2022/09/22 00:13:59;;;;;;;8.45;4.13;;;7.70;99.90;;;;;;5058125;28;20486;-59
2022/09/22 00:16:32;;;;;;;8.85;4.65;;;7.70;99.90;;;;;;5062681;28;20024;-58
2022/09/22 00:18:58;;;;;;;7.55;4.57;;;7.80;99.90;;;;;;5065237;28;20402;-58
2022/09/22 00:21:29;;;;;;;12.35;4.47;;;7.80;99.90;;;;;;5059097;28;20039;-59
2022/09/22 00:23:55;;;;;;;13.00;4.82;;;7.80;99.90;;;;;;5064004;28;20036;-59
2022/09/22 00:26:22;;;;;;;9.68;4.72;;;7.90;99.90;;;;;;5058978;28;20031;-59
2022/09/22 00:28:50;;;;;;;11.63;4.85;;;7.80;99.90;;;;;;5066945;28;20028;-60
2022/09/22 00:31:21;;;;;;;8.90;4.68;;;7.80;99.90;;;;;;5064266;28;20518;-58
2022/09/22 00:33:47;;;;;;;11.40;4.97;;;7.80;99.90;;;;;;5063704;28;20116;-58
2022/09/22 00:36:14;;;;;;;9.60;4.43;;;7.80;99.90;;;;;;5063067;28;20024;-56
2022/09/22 00:38:40;;;;;;;9.45;4.78;;;7.70;99.90;;;;;;5062940;28;20402;-58
2022/09/22 00:41:09;;;;;;;10.50;4.60;;;7.70;99.90;;;;;;5063927;28;20056;-58
2022/09/22 00:43:36;;;;;;;11.20;4.85;;;7.70;99.90;;;;;;5057189;28;20058;-59
2022/09/22 00:46:15;;;;;;;16.25;5.10;;;7.70;99.90;;;;;;5061923;28;20035;-59
2022/09/22 00:48:50;;;;;;;12.95;4.97;;;7.80;99.90;;;;;;5060248;28;20123;-56
2022/09/22 00:51:16;;;;;;;;;;;7.80;99.90;;;;;;5058845;28;20035;-58
2022/09/22 00:53:43;;;;;;;15.02;6.07;;;7.80;99.90;;;;;;5062492;28;19927;-57
2022/09/22 00:56:21;;;;;;;11.07;4.93;;;7.70;99.90;;;;;;5054885;28;20075;-56
2022/09/22 00:58:53;;;;;;;12.88;4.85;;;7.60;99.90;;;;;;5054780;28;20074;-57
2022/09/22 01:01:19;;;;;;;9.05;4.85;;;7.50;99.90;;;;;;5060262;28;20025;-55
2022/09/22 01:03:45;;;;;;;6.95;4.72;;;7.40;99.90;;;;;;5061300;28;20036;-60
2022/09/22 01:06:16;;;;;;;10.52;5.20;;;7.40;99.90;;;;;;5054855;28;20068;-59
2022/09/22 01:08:43;;;;;;;8.35;4.80;;;7.40;99.90;;;;;;5057689;28;20751;-59
2022/09/22 01:11:12;;;;;;;13.20;5.30;;;7.40;99.90;;;;;;5064110;28;20501;-58
2022/09/22 01:13:40;;;;;;;22.70;6.30;;;7.40;99.90;;;;;;5060801;28;20028;-60
2022/09/22 01:16:06;;;;;;;11.38;5.60;;;7.40;99.90;;;;;;5063250;28;20547;-57
2022/09/22 01:18:48;;;;;;;13.48;5.72;;;7.30;99.90;;;;;;5064586;28;20025;-57
2022/09/22 01:21:19;;;;;;;12.57;6.38;;;7.30;99.90;;;;;;5063619;28;20279;-53
2022/09/22 01:23:59;;;;;;;16.15;5.93;;;7.30;99.90;;;;;;5056988;28;20028;-59
2022/09/22 01:26:49;;;;;;;12.93;5.93;;;7.30;99.90;;;;;;5064505;28;20032;-57
2022/09/22 01:29:27;;;;;;;13.75;6.35;;;7.20;99.90;;;;;;5062710;28;20056;-60
2022/09/22 01:32:13;;;;;;;13.60;6.22;;;7.20;99.90;;;;;;5057636;28;20037;-58
2022/09/22 01:34:50;;;;;;;11.82;5.22;;;7.20;99.90;;;;;;5063494;28;20020;-61
2022/09/22 01:37:22;;;;;;;13.20;4.57;;;7.20;99.90;;;;;;5060227;28;20075;-59
2022/09/22 01:40:25;;;;;;;13.25;6.13;;;7.30;99.90;;;;;;5060309;28;20490;-60
2022/09/22 01:42:59;;;;;;;7.95;4.72;;;7.20;99.90;;;;;;5017532;28;20036;-59
2022/09/22 01:45:31;;;;;;;11.30;4.93;;;7.20;99.90;;;;;;5059139;28;20025;-60
2022/09/22 01:48:04;;;;;;;15.70;5.40;;;7.20;99.90;;;;;;5055559;28;20029;-58
2022/09/22 01:50:35;;;;;;;10.25;5.78;;;7.20;99.90;;;;;;5055890;28;20017;-60
2022/09/22 01:53:07;;;;;;;13.90;6.20;;;7.20;99.90;;;;;;5058124;28;20044;-58
2022/09/22 01:55:37;;;;;;;11.18;5.40;;;7.20;99.90;;;;;;5056619;28;20078;-60
2022/09/22 01:58:08;;;;;;;8.48;4.70;;;7.20;99.90;;;;;;5056796;28;20556;-58
2022/09/22 02:00:38;;;;;;;11.95;5.50;;;7.20;99.90;;;;;;5057912;28;20064;-58
2022/09/22 02:03:09;;;;;;;13.43;5.18;;;7.10;99.90;;;;;;5051965;28;20051;-58
2022/09/22 02:05:48;;;;;;;14.38;6.03;;;7.10;99.90;;;;;;5057011;28;20427;-60
2022/09/22 02:08:36;;;;;;;15.52;5.45;;;7.10;99.90;;;;;;5058899;28;20025;-60
2022/09/22 02:11:08;;;;;;;12.60;5.88;;;7.00;99.90;;;;;;5061859;28;20036;-59
2022/09/22 02:13:35;;;;;;;14.85;5.15;;;7.00;99.90;;;;;;5054136;28;20048;-59
2022/09/22 02:16:02;;;;;;;15.70;5.95;;;7.00;99.90;;;;;;5060453;28;20483;-56
2022/09/22 02:18:49;;;;;;;9.70;5.43;;;7.00;99.90;;;;;;5067315;28;20029;-59
2022/09/22 02:21:15;;;;;;;9.77;4.60;;;7.00;99.90;;;;;;5062546;28;20021;-58
2022/09/22 02:23:41;;;;;;;14.63;6.28;;;7.00;99.90;;;;;;5058907;28;20573;-60
2022/09/22 02:26:08;;;;;;;12.43;5.47;;;7.00;99.90;;;;;;5065989;28;20030;-59
2022/09/22 02:28:37;;;;;;;8.73;4.85;;;7.00;99.90;;;;;;5063929;28;21038;-60
2022/09/22 02:31:05;;;;;;;12.63;4.85;;;7.00;99.90;;;;;;5062616;28;20335;-59
2022/09/22 02:33:34;;;;;;;10.00;5.18;;;7.00;99.90;;;;;;5062024;28;20123;-56
2022/09/22 02:36:34;;;;;;;8.20;5.35;;;7.00;99.90;;;;;;5064862;28;20486;-59
2022/09/22 02:39:08;;;;;;;10.65;4.50;;;7.00;99.90;;;;;;5062962;28;20111;-60
2022/09/22 02:42:12;;;;;;;16.80;5.43;;;7.00;99.90;;;;;;5063025;28;20021;-59
2022/09/22 02:44:52;;;;;;;11.48;5.35;;;6.90;99.90;;;;;;5037949;28;20048;-60
2022/09/22 02:47:31;;;;;;;9.48;5.15;;;7.00;99.90;;;;;;5062392;28;20075;-60
2022/09/22 02:49:58;;;;;;;9.88;5.50;;;6.90;99.90;;;;;;5067068;28;20035;-58
2022/09/22 02:52:24;;;;;;;16.50;5.57;;;6.90;99.90;;;;;;5059879;28;20029;-58
2022/09/22 02:54:52;;;;;;;9.65;4.32;;;6.90;99.90;;;;;;5062850;28;20028;-58
2022/09/22 02:57:19;;;;;;;11.13;4.13;;;6.90;99.90;;;;;;5064407;28;20395;-54
2022/09/22 02:59:44;;;;;;;13.13;4.78;;;6.90;99.90;;;;;;5063466;28;20706;-58
2022/09/22 03:02:10;;;;;;;8.43;4.60;;;6.90;99.90;;;;;;5066778;28;20040;-57
2022/09/22 03:04:36;;;;;;;6.60;3.97;;;6.90;99.90;;;;;;5066907;28;20052;-55
2022/09/22 03:07:01;;;;;;;8.65;4.45;;;6.80;99.90;;;;;;5066423;28;20122;-59
2022/09/22 03:09:27;;;;;;;11.05;4.20;;;6.80;99.90;;;;;;5063820;28;20028;-59
2022/09/22 03:11:52;;;;;;;11.07;4.38;;;6.70;99.90;;;;;;5064031;28;20064;-55
2022/09/22 03:14:18;;;;;;;11.70;4.60;;;6.70;99.90;;;;;;5066345;28;20052;-59
2022/09/22 03:16:43;;;;;;;6.65;3.67;;;6.70;99.90;;;;;;5066251;28;20410;-58
2022/09/22 03:19:09;;;;;;;20.63;4.45;;;6.60;99.90;;;;;;5064637;28;20527;-59
2022/09/22 03:21:34;;;;;;;12.00;4.10;;;6.70;99.90;;;;;;5063451;28;20111;-59
2022/09/22 03:24:00;;;;;;;10.85;4.38;;;6.60;99.90;;;;;;5065204;28;20137;-59
2022/09/22 03:26:25;;;;;;;7.13;3.72;;;6.60;99.90;;;;;;5065550;28;20150;-59
2022/09/22 03:28:52;;;;;;;10.95;4.05;;;6.60;99.90;;;;;;5063867;28;20549;-57
2022/09/22 03:31:17;;;;;;;9.48;4.45;;;6.50;99.90;;;;;;5061190;28;20036;-58
2022/09/22 03:33:43;;;;;;;10.93;4.00;;;6.60;99.90;;;;;;5059989;28;20032;-59
2022/09/22 03:36:08;;;;;;;17.25;4.90;;;6.50;99.90;;;;;;5065190;28;20446;-57
2022/09/22 03:38:34;;;;;;;11.75;4.10;;;6.50;99.90;;;;;;5067310;28;20446;-55
2022/09/22 03:41:00;;;;;;;6.85;4.25;;;6.50;99.90;;;;;;5064757;28;20406;-56
2022/09/22 03:43:25;;;;;;;7.95;4.07;;;6.50;99.90;;;;;;5063445;28;20108;-57
2022/09/22 03:45:58;;;;;;;8.02;4.22;;;6.50;99.90;;;;;;5066528;28;20044;-53
2022/09/22 03:48:25;;;;;;;19.38;3.95;;;6.50;99.90;;;;;;5068907;28;20115;-60
2022/09/22 03:50:51;;;;;;;16.60;5.10;;;6.40;99.90;;;;;;5066749;28;20584;-59
2022/09/22 03:53:16;;;;;;;10.07;4.18;;;6.40;99.90;;;;;;5066235;28;20044;-59
2022/09/22 03:55:42;;;;;;;9.55;4.55;;;6.40;99.90;;;;;;5067025;28;20096;-57
2022/09/22 03:58:07;;;;;;;9.93;4.55;;;6.40;99.90;;;;;;5068136;28;20064;-59
2022/09/22 04:00:33;;;;;;;10.85;4.13;;;6.40;99.90;;;;;;5066256;28;20059;-60
2022/09/22 04:02:58;;;;;;;13.88;4.00;;;6.40;99.90;;;;;;5062135;28;20068;-57
2022/09/22 04:05:24;;;;;;;7.88;4.00;;;6.40;99.90;;;;;;5061024;28;20037;-57
2022/09/22 04:07:50;;;;;;;9.18;4.82;;;6.30;99.90;;;;;;5067449;28;20402;-59
2022/09/22 04:10:16;;;;;;;13.27;4.47;;;6.30;99.90;;;;;;5067130;28;20028;-56
2022/09/22 04:12:42;;;;;;;10.30;4.57;;;6.30;99.90;;;;;;5064923;28;20032;-57
2022/09/22 04:15:08;;;;;;;10.13;4.55;;;6.20;99.90;;;;;;5065390;28;20155;-57
2022/09/22 04:17:35;;;;;;;10.82;4.65;;;6.30;99.90;;;;;;5065608;28;20036;-57
2022/09/22 04:20:02;;;;;;;11.32;4.88;;;6.20;99.90;;;;;;5070975;28;20031;-55
2022/09/22 04:22:28;;;;;;;9.57;4.85;;;6.20;99.90;;;;;;5069564;28;20491;-57
2022/09/22 04:24:53;;;;;;;9.10;4.38;;;6.20;99.90;;;;;;5061900;28;20035;-56
2022/09/22 04:27:18;;;;;;;11.45;4.05;;;6.20;99.90;;;;;;5064383;28;20398;-58
2022/09/22 04:29:44;;;;;;;9.57;4.65;;;6.20;99.90;;;;;;5066184;28;20040;-58
2022/09/22 04:32:09;;;;;;;15.68;4.90;;;6.10;99.90;;;;;;5069377;28;20036;-58
2022/09/22 04:34:35;;;;;;;8.75;4.90;;;6.20;99.90;;;;;;5062203;28;20040;-58
2022/09/22 04:37:00;;;;;;;8.60;4.53;;;6.20;99.90;;;;;;5064555;28;20035;-59
2022/09/22 04:39:27;;;;;;;9.90;4.20;;;6.10;99.90;;;;;;5062490;28;20060;-60
2022/09/22 04:41:53;;;;;;;12.80;4.20;;;6.20;99.90;;;;;;5067301;28;20028;-57
2022/09/22 04:44:18;;;;;;;9.50;4.53;;;6.20;99.90;;;;;;5065267;28;20025;-56
2022/09/22 04:46:45;;;;;;;10.32;4.45;;;6.20;99.90;;;;;;5065764;28;20052;-59
2022/09/22 04:49:11;;;;;;;12.20;4.93;;;6.20;99.90;;;;;;5062331;28;20032;-59
2022/09/22 04:51:37;;;;;;;9.38;4.68;;;6.20;99.90;;;;;;5066289;28;20090;-59
2022/09/22 04:54:03;;;;;;;8.48;4.60;;;6.30;99.90;;;;;;5062959;28;20032;-58
2022/09/22 04:56:28;;;;;;;9.23;4.68;;;6.40;99.90;;;;;;5068799;28;20502;-57
2022/09/22 04:58:54;;;;;;;8.32;4.45;;;6.50;99.90;;;;;;5049630;28;20477;-57
2022/09/22 05:01:19;;;;;;;8.68;4.07;;;6.40;99.90;;;;;;5047080;28;20469;-59
2022/09/22 05:03:45;;;;;;;9.05;4.80;;;6.40;99.90;;;;;;5049131;28;20359;-58
2022/09/22 05:06:10;;;;;;;7.95;5.07;;;6.40;99.90;;;;;;5048583;28;20028;-54
2022/09/22 05:08:36;;;;;;;8.30;3.83;;;6.50;99.90;;;;;;5060882;28;20036;-53
2022/09/22 05:11:05;;;;;;;8.43;4.15;;;6.50;99.90;;;;;;5048416;28;20027;-57
2022/09/22 05:13:31;;;;;;;10.10;4.75;;;6.50;99.90;;;;;;5063628;28;20397;-56
2022/09/22 05:15:56;;;;;;;9.10;4.72;;;6.60;99.90;;;;;;5051976;28;20115;-57
2022/09/22 05:18:22;;;;;;;11.02;4.45;;;6.60;99.90;;;;;;5068313;28;20021;-58
2022/09/22 05:20:48;;;;;;;8.07;4.55;;;6.60;99.90;;;;;;5067341;28;20107;-59
2022/09/22 05:23:13;;;;;;;9.73;4.57;;;6.60;99.90;;;;;;5049768;28;20047;-57
2022/09/22 05:25:39;;;;;;;6.40;4.00;;;6.60;99.90;;;;;;5048478;28;20032;-59
2022/09/22 05:28:04;;;;;;;9.18;4.60;;;6.70;99.90;;;;;;5062570;28;20095;-54
2022/09/22 05:30:30;;;;;;;10.32;4.70;;;6.70;99.90;;;;;;5048642;28;20025;-57
2022/09/22 05:32:55;;;;;;;8.93;4.55;;;6.70;99.90;;;;;;5066344;28;20028;-60
2022/09/22 05:35:23;;;;;;;6.78;3.92;;;6.70;99.90;;;;;;5032787;28;20032;-57
2022/09/22 05:37:50;;;;;;;10.48;4.78;;;6.70;99.90;;;;;;5061833;28;20564;-57
2022/09/22 05:40:16;;;;;;;9.20;4.90;;;6.80;99.90;;;;;;5063988;28;20032;-53
2022/09/22 05:42:44;;;;;;;18.90;5.15;;;6.80;99.90;;;;;;5063478;28;20029;-59
2022/09/22 05:45:10;;;;;;;11.32;4.45;;;6.80;99.90;;;;;;5039879;28;20043;-58
2022/09/22 05:47:35;;;;;;;10.23;5.03;;;6.80;99.90;;;;;;5053619;28;20462;-57
2022/09/22 05:50:01;;;;;;;6.70;4.18;;;6.80;99.90;;;;;;5042596;28;20038;-58
2022/09/22 05:52:27;;;;;;;9.85;4.63;;;6.80;99.90;;;;;;5048174;28;20024;-60
2022/09/22 05:54:52;;;;;;;12.30;4.65;;;6.80;99.90;;;;;;5064239;28;20039;-58
2022/09/22 05:57:24;;;;;;;10.98;5.50;;;6.80;99.90;;;;;;5046841;28;20108;-55
2022/09/22 05:59:50;;;;;;;10.85;5.10;;;6.80;99.90;;;;;;5043479;28;20746;-58
2022/09/22 06:02:15;;;;;;;7.13;4.13;;;6.90;99.90;;;;;;5070963;28;20016;-58
2022/09/22 06:04:41;;;;;;;9.55;5.03;;;6.90;99.90;;;;;;5067786;28;20363;-56
2022/09/22 06:07:06;;;;;;;11.82;4.03;;;6.90;99.90;;;;;;5066531;28;20059;-56
2022/09/22 06:09:32;;;;;;;11.52;4.50;;;6.90;99.90;;;;;;5063242;28;20036;-55
2022/09/22 06:11:58;;;;;;;148.40;26.95;;;7.00;99.90;;;;;;5069861;28;20035;-56
2022/09/22 06:14:23;;;;;;;86.97;17.45;;;7.00;99.90;;;;;;5068648;28;20028;-55
2022/09/22 06:16:49;;;;;;;41.72;9.13;;;7.00;99.90;;;;;;5067980;28;20016;-59
2022/09/22 06:19:14;;;;;;;38.20;8.40;;;7.00;99.90;;;;;;5066891;28;21249;-59
2022/09/22 06:21:40;;;;;;;36.85;8.07;;;7.00;99.90;;;;;;5068808;28;20028;-57
2022/09/22 06:24:06;;;;;;;25.58;7.03;;;7.10;99.90;;;;;;5062988;28;20032;-58
2022/09/22 06:26:31;;;;;;;23.25;6.63;;;7.10;99.90;;;;;;5048066;28;20025;-55
2022/09/22 06:28:57;;;;;;;17.90;5.00;;;7.20;99.90;;;;;;5050252;28;20093;-57
2022/09/22 06:31:23;;;;;;;17.73;4.65;;;7.30;99.90;;;;;;5069990;28;20034;-57
2022/09/22 06:33:49;;;;;;;10.13;5.25;;;7.30;99.90;;;;;;5047042;28;20017;-58
2022/09/22 06:36:30;;;;;;;13.23;4.93;;;7.30;99.90;;;;;;5037201;28;20032;-58
2022/09/22 06:38:59;;;;;;;11.25;4.15;;;7.40;99.90;;;;;;5052351;28;20029;-57
2022/09/22 06:41:27;;;;;;;20.38;6.03;;;7.50;99.90;;;;;;5065233;28;20021;-59
2022/09/22 06:43:56;;;;;;;17.75;5.85;;;7.60;99.90;;;;;;5047165;28;20029;-59
2022/09/22 06:46:25;;;;;;;10.98;5.25;;;7.60;99.90;;;;;;5069830;28;20410;-59
2022/09/22 06:48:56;;;;;;;11.40;5.75;;;7.70;99.90;;;;;;5049224;28;20043;-60
2022/09/22 06:51:34;;;;;;;13.65;5.45;;;7.80;99.90;;;;;;5048763;28;20045;-58
2022/09/22 06:54:03;;;;;;;14.18;5.47;;;7.90;99.90;;;;;;5067823;28;20029;-58
2022/09/22 06:56:30;;;;;;;10.52;5.95;;;7.90;99.90;;;;;;5065570;28;20479;-56
2022/09/22 06:58:55;;;;;;;12.65;5.13;;;8.00;99.90;;;;;;5048536;28;20039;-58
2022/09/22 07:01:22;;;;;;;11.82;5.80;;;8.10;99.90;;;;;;5059479;28;20109;-59
2022/09/22 07:03:48;;;;;;;12.70;5.60;;;8.10;99.90;;;;;;5061965;28;20024;-58
2022/09/22 07:06:16;;;;;;;15.50;6.18;;;8.20;99.90;;;;;;5043090;28;20031;-59
2022/09/22 07:08:43;;;;;;;12.88;5.47;;;8.30;99.90;;;;;;5062940;28;20073;-58
2022/09/22 07:11:09;;;;;;;9.57;5.75;;;8.40;99.90;;;;;;5059316;28;20028;-59
2022/09/22 07:13:38;;;;;;;12.23;6.20;;;8.40;99.90;;;;;;5055200;28;20028;-55
2022/09/22 07:16:09;;;;;;;11.05;6.07;;;8.50;99.90;;;;;;5062802;28;20142;-59
2022/09/22 07:18:42;;;;;;;11.32;5.60;;;8.60;99.90;;;;;;5059957;28;20021;-56
2022/09/22 07:21:11;;;;;;;10.50;6.32;;;8.60;99.90;;;;;;5060701;28;20021;-59
2022/09/22 07:23:36;;;;;;;10.38;5.72;;;8.70;99.90;;;;;;5061807;28;20032;-58
2022/09/22 07:26:04;;;;;;;14.23;6.20;;;8.80;99.90;;;;;;5061424;28;20116;-58
2022/09/22 07:28:31;;;;;;;12.68;7.13;;;8.80;99.90;;;;;;5059707;28;20521;-58
2022/09/22 07:31:05;;;;;;;10.57;5.78;;;8.90;99.90;;;;;;5057902;28;20032;-54
2022/09/22 07:33:34;;;;;;;13.02;5.32;;;9.00;99.90;;;;;;5058229;28;20025;-57
2022/09/22 07:36:08;;;;;;;21.02;7.03;;;9.10;99.90;;;;;;5058737;28;20037;-56
2022/09/22 07:38:35;;;;;;;11.18;6.95;;;9.10;99.90;;;;;;5059164;28;20021;-59
2022/09/22 07:41:03;;;;;;;12.45;5.60;;;9.20;99.90;;;;;;5060256;28;20043;-58
2022/09/22 07:43:29;;;;;;;10.50;5.43;;;9.20;99.90;;;;;;5061847;28;20024;-56
2022/09/22 07:45:58;;;;;;;10.50;5.45;;;9.30;99.90;;;;;;5061456;28;20036;-58
2022/09/22 07:48:41;;;;;;;13.75;5.57;;;9.40;99.90;;;;;;5065291;28;20029;-57
2022/09/22 07:51:17;;;;;;;12.65;6.00;;;9.40;99.90;;;;;;5062687;28;20099;-59
2022/09/22 07:53:44;;;;;;;12.38;6.65;;;9.50;99.90;;;;;;5060601;28;20020;-59
2022/09/22 07:56:12;;;;;;;15.93;6.32;;;9.70;99.90;;;;;;5047369;28;20111;-59
2022/09/22 07:58:46;;;;;;;15.75;6.45;;;9.80;99.90;;;;;;5059627;28;20021;-59
2022/09/22 08:01:12;;;;;;;13.18;6.88;;;9.90;99.90;;;;;;5065849;28;20505;-59
2022/09/22 08:03:38;;;;;;;13.32;6.18;;;10.00;99.90;;;;;;5058988;28;20029;-57
2022/09/22 08:06:10;;;;;;;12.85;5.80;;;10.10;99.90;;;;;;5066494;28;20036;-59
2022/09/22 08:08:40;;;;;;;10.10;6.03;;;10.20;99.90;;;;;;5061604;28;20089;-57
2022/09/22 08:11:17;;;;;;;15.23;7.07;;;10.30;99.90;;;;;;5066788;28;20032;-60
2022/09/22 08:13:54;;;;;;;13.90;5.35;;;10.40;99.90;;;;;;5058430;28;20043;-59
2022/09/22 08:16:22;;;;;;;10.82;5.80;;;10.50;99.90;;;;;;5063594;28;20024;-56
2022/09/22 08:18:55;;;;;;;12.65;6.40;;;10.50;99.90;;;;;;5063204;28;20399;-59
2022/09/22 08:21:26;;;;;;;11.80;6.05;;;10.60;99.90;;;;;;5066847;28;20043;-61
2022/09/22 08:23:52;;;;;;;16.73;6.32;;;10.70;99.90;;;;;;5067778;28;20099;-60
2022/09/22 08:26:19;;;;;;;10.57;6.85;;;10.80;99.90;;;;;;5065759;28;20052;-61
2022/09/22 08:28:46;;;;;;;10.65;6.55;;;10.90;99.90;;;;;;5059149;28;20028;-62
2022/09/22 08:31:18;;;;;;;9.30;5.22;;;11.00;99.90;;;;;;5065964;28;20062;-62
2022/09/22 08:33:44;;;;;;;11.00;5.53;;;11.10;99.90;;;;;;5059398;28;20035;-60
2022/09/22 08:36:10;;;;;;;9.60;5.78;;;11.20;99.90;;;;;;5080959;22;20129;-60
2022/09/22 08:38:37;;;;;;;10.73;4.80;;;11.40;99.90;;;;;;5130504;27;20152;-60
2022/09/22 08:41:38;;;;;;;11.23;6.00;;;11.50;99.90;;;;;;5125939;27;20026;-58
2022/09/22 08:44:08;;;;;;;12.30;5.03;;;11.60;99.90;;;;;;5127430;27;20027;-59
2022/09/22 08:46:37;;;;;;;9.70;4.95;;;11.80;99.90;;;;;;5125501;27;20496;-59
2022/09/22 08:52:03;;;;;;;9.18;5.25;;;12.10;99.90;;;;;;5122992;27;20057;-59
2022/09/22 08:54:30;;;;;;;6.90;3.92;;;12.30;99.90;;;;;;5129712;27;20051;-57
2022/09/22 08:57:28;;;;;;;10.48;4.63;;;12.40;99.90;;;;;;5127662;27;20044;-57
2022/09/22 09:00:15;;;;;;;11.65;4.28;;;12.60;99.90;;;;;;5128727;27;20027;-57
2022/09/22 09:02:48;;;;;;;10.20;5.22;;;12.70;99.90;;;;;;5125850;27;20448;-60
2022/09/22 09:05:25;;;;;;;9.30;5.32;;;12.90;99.90;;;;;;5123543;27;20098;-55
2022/09/22 09:08:03;;;;;;;9.90;3.80;;;13.10;99.90;;;;;;5121351;27;20027;-58
2022/09/22 09:10:39;;;;;;;27.80;6.20;;;13.20;99.90;;;;;;5123098;27;20019;-59
2022/09/22 09:13:39;;;;;;;14.70;4.82;;;13.40;99.90;;;;;;5120887;27;20028;-60
2022/09/22 09:16:43;;;;;;;9.60;4.45;;;13.60;99.90;;;;;;5121740;27;20663;-59
2022/09/22 09:19:36;;;;;;;11.80;4.72;;;13.80;99.90;;;;;;5124130;27;20393;-59
2022/09/22 09:22:18;;;;;;;9.65;3.83;;;13.90;99.90;;;;;;5118267;27;20019;-59
2022/09/22 09:24:49;;;;;;;5.72;3.38;;;14.10;99.90;;;;;;5122082;27;20492;-61
2022/09/22 09:27:20;;;;;;;5.72;3.53;;;14.20;99.90;;;;;;5117024;27;20032;-59
2022/09/22 09:30:08;;;;;;;10.00;4.15;;;14.40;99.90;;;;;;5119732;27;20024;-59
2022/09/22 09:32:48;;;;;;;5.03;3.40;;;14.50;99.90;;;;;;5124609;27;20035;-59
2022/09/22 09:35:23;;;;;;;8.35;3.25;;;14.60;99.90;;;;;;5119225;27;20023;-59
2022/09/22 09:37:50;;;;;;;6.82;3.30;;;14.70;99.90;;;;;;5112573;27;20059;-58
2022/09/22 09:40:18;;;;;;;6.85;3.03;;;15.00;99.90;;;;;;5115343;27;20046;-59
2022/09/22 09:43:00;;;;;;;6.50;3.25;;;15.10;99.90;;;;;;5112591;27;20023;-60
2022/09/22 09:45:52;;;;;;;9.95;3.05;;;15.40;99.90;;;;;;5117841;27;20073;-59
2022/09/22 09:48:26;;;;;;;9.23;3.05;;;15.60;99.90;;;;;;5129385;27;20093;-59
2022/09/22 09:50:51;;;;;;;;;;;15.80;99.90;;;;;;5130474;27;20104;-59
2022/09/22 09:53:33;;;;;;;4.72;2.40;;;16.00;99.90;;;;;;5132111;27;20375;-57
2022/09/22 09:55:59;;;;;;;7.32;3.22;;;16.30;99.90;;;;;;5132195;27;20030;-59
2022/09/22 10:01:12;;;;;;;10.52;2.50;;;16.60;99.90;;;;;;5131066;27;20087;-61
2022/09/22 10:03:50;;;;;;;2.63;2.08;;;16.70;99.90;;;;;;5132136;27;20076;-61
2022/09/22 10:06:23;;;;;;;2.70;1.88;;;17.00;99.90;;;;;;5131689;27;20061;-60
2022/09/22 10:08:50;;;;;;;4.95;2.33;;;17.20;99.90;;;;;;5132051;27;20051;-61
2022/09/22 10:11:26;;;;;;;3.65;1.98;;;17.30;99.90;;;;;;5131688;27;20081;-60
2022/09/22 10:13:55;;;;;;;2.63;1.80;;;17.50;99.90;;;;;;5131871;27;20076;-60
2022/09/22 10:16:27;;;;;;;4.50;1.70;;;17.60;99.90;;;;;;5129889;27;20419;-60
2022/09/22 10:19:24;;;;;;;5.68;1.58;;;17.80;99.90;;;;;;5128862;27;20033;-61
2022/09/22 10:21:50;;;;;;;4.60;1.98;;;17.70;99.90;;;;;;5128409;27;20525;-59
2022/09/22 10:24:29;;;;;;;2.85;1.70;;;17.80;99.90;;;;;;5129265;27;20023;-58
2022/09/22 10:26:54;;;;;;;2.90;1.48;;;17.80;99.90;;;;;;5131567;27;20023;-60
2022/09/22 10:29:20;;;;;;;2.30;1.42;;;17.90;99.90;;;;;;5131828;27;20099;-60
2022/09/22 10:31:59;;;;;;;4.95;1.50;;;17.90;99.90;;;;;;5129516;27;20055;-61
2022/09/22 10:34:38;;;;;;;2.05;1.52;;;18.00;99.90;;;;;;5130985;27;20152;-60
2022/09/22 10:37:12;;;;;;;2.58;1.50;;;18.10;99.90;;;;;;5130782;27;20480;-59
2022/09/22 10:39:49;;;;;;;4.50;1.52;;;18.20;99.90;;;;;;5130113;27;20126;-58
2022/09/22 10:42:46;;;;;;;3.53;1.48;;;18.20;99.90;;;;;;5125605;27;20152;-61
2022/09/22 10:45:18;;;;;;;2.85;1.35;;;18.30;99.90;;;;;;5130093;27;20508;-60
2022/09/22 10:47:58;;;;;;;5.20;1.48;;;18.40;99.90;;;;;;5130873;27;20499;-59
2022/09/22 10:50:27;;;;;;;4.93;1.30;;;18.20;99.90;;;;;;5127010;27;20047;-58
2022/09/22 10:52:58;;;;;;;1.42;0.82;;;18.40;99.90;;;;;;5118888;27;20054;-59
2022/09/22 10:55:33;;;;;;;2.83;1.45;;;18.50;99.90;;;;;;5120744;27;20023;-57
2022/09/22 10:58:08;;;;;;;2.92;1.35;;;18.50;99.90;;;;;;5127716;27;20479;-60
2022/09/22 11:00:40;;;;;;;3.42;1.45;;;18.60;99.90;;;;;;5127232;27;20027;-60
2022/09/22 11:03:48;;;;;;;2.35;1.23;;;18.70;99.90;;;;;;5125816;27;20038;-59
2022/09/22 11:12:34;;;;;;;2.53;1.45;;;19.00;99.90;;;;;;5128362;27;20034;-59
2022/09/22 11:15:31;;;;;;;2.55;1.40;;;19.20;99.90;;;;;;5119899;27;20027;-66
2022/09/22 11:18:05;;;;;;;2.17;1.25;;;19.40;99.90;;;;;;5115481;27;20024;-66
2022/09/22 11:20:35;;;;;;;4.30;1.83;;;19.50;99.90;;;;;;5125261;27;20022;-66
2022/09/22 11:23:22;;;;;;;5.07;1.33;;;19.70;99.90;;;;;;5125102;27;20122;-65
2022/09/22 11:26:07;;;;;;;2.42;1.20;;;19.30;99.90;;;;;;5125028;28;20126;-67
2022/09/22 11:28:54;;;;;;;2.72;1.60;;;19.30;99.90;;;;;;5120270;28;20027;-66
2022/09/22 11:31:46;;;;;;;1.98;1.17;;;19.70;99.90;;;;;;5119356;28;20027;-66
2022/09/22 11:34:30;;;;;;;2.67;1.38;;;19.60;99.90;;;;;;5120000;28;20057;-64
2022/09/22 11:37:25;;;;;;;2.83;1.20;;;19.80;99.90;;;;;;5121356;28;20095;-67
2022/09/22 11:40:15;;;;;;;;;;;20.00;99.90;;;;;;5125862;28;20036;-66
2022/09/22 11:43:11;;;;;;;3.35;1.10;;;19.90;99.90;;;;;;5116267;28;19919;-65
2022/09/22 11:45:50;;;;;;;2.42;1.00;;;20.20;99.90;;;;;;5121165;28;20119;-66
2022/09/22 11:48:34;;;;;;;1.17;1.05;;;20.30;99.90;;;;;;5124480;27;20614;-64
2022/09/22 11:50:59;;;;;;;2.85;1.33;;;20.70;99.90;;;;;;5124157;28;20436;-65
2022/09/22 11:53:37;;;;;;;1.50;1.15;;;21.20;99.90;;;;;;5118275;28;20031;-67
2022/09/22 11:56:21;;;;;;;1.73;1.00;;;21.00;99.90;;;;;;5128167;27;20088;-63
2022/09/22 11:58:48;;;;;;;1.15;0.90;;;21.00;99.90;;;;;;5130868;27;20022;-66
2022/09/22 12:01:19;;;;;;;2.70;0.80;;;21.10;99.90;;;;;;5130427;27;20023;-66
2022/09/22 12:03:49;;;;;;;1.35;1.00;;;21.00;99.90;;;;;;5130332;27;20031;-65
2022/09/22 12:06:20;;;;;;;0.80;0.80;;;20.50;99.90;;;;;;5130923;27;20030;-64
2022/09/22 12:08:57;;;;;;;1.10;1.00;;;20.50;99.80;;;;;;5131167;27;20400;-65
2022/09/22 12:11:24;;;;;;;1.45;0.80;;;20.80;99.90;;;;;;5127832;27;20541;-65
2022/09/22 12:13:52;;;;;;;1.02;0.90;;;20.60;99.90;;;;;;5129348;27;20027;-66
2022/09/22 12:16:21;;;;;;;3.13;1.55;;;20.80;99.90;;;;;;5128836;27;20023;-65
2022/09/22 12:18:58;;;;;;;1.15;0.70;;;21.20;99.20;;;;;;5128610;27;20022;-67
2022/09/22 12:21:33;;;;;;;1.52;0.90;;;21.60;98.20;;;;;;5124285;27;20016;-65
2022/09/22 12:24:06;;;;;;;0.93;0.70;;;21.40;98.40;;;;;;5129330;27;20629;-66
2022/09/22 12:26:40;;;;;;;1.20;0.70;;;21.50;96.10;;;;;;5126073;27;20027;-66
2022/09/22 12:29:26;;;;;;;;;;;21.50;93.20;;;;;;5127965;27;20031;-65
2022/09/22 12:31:55;;;;;;;3.22;0.93;;;21.40;96.80;;;;;;5122743;27;19946;-64
2022/09/22 12:34:42;;;;;;;1.17;0.65;;;21.70;94.40;;;;;;5126502;27;20025;-65
2022/09/22 12:37:14;;;;;;;2.28;1.08;;;21.50;93.60;;;;;;5126210;27;20045;-66
2022/09/22 12:39:47;;;;;;;1.85;0.70;;;21.40;96.20;;;;;;5128664;27;20019;-66
2022/09/22 12:42:45;;;;;;;2.85;0.80;;;21.60;93.30;;;;;;5123656;27;20080;-65
2022/09/22 12:45:29;;;;;;;4.30;0.70;;;21.70;94.80;;;;;;5120498;27;20126;-65
2022/09/22 12:47:56;;;;;;;0.65;0.65;;;22.20;94.80;;;;;;5125521;27;20458;-66
2022/09/22 12:50:22;;;;;;;0.68;0.60;;;22.20;96.80;;;;;;5127871;27;20024;-66
2022/09/22 12:52:49;;;;;;;0.52;0.52;;;22.30;95.50;;;;;;5122090;27;20518;-64
2022/09/22 12:55:36;;;;;;;1.38;0.80;;;22.40;94.50;;;;;;5124775;27;20019;-66
2022/09/22 12:58:23;;;;;;;1.48;0.93;;;22.10;94.30;;;;;;5125081;27;20548;-66
2022/09/22 13:00:50;;;;;;;0.82;0.65;;;21.90;93.30;;;;;;5128557;27;20042;-66
2022/09/22 13:03:25;;;;;;;2.08;0.82;;;21.80;95.00;;;;;;5129225;27;20130;-64
2022/09/22 13:05:53;;;;;;;3.65;0.50;;;21.90;93.50;;;;;;5127897;27;20031;-66
2022/09/22 13:08:41;;;;;;;9.32;1.30;;;22.20;94.20;;;;;;5125756;27;20033;-64
2022/09/22 13:11:08;;;;;;;1.63;0.68;;;22.20;91.70;;;;;;5116439;27;20046;-66
2022/09/22 13:13:38;;;;;;;1.45;0.88;;;22.10;94.80;;;;;;5120018;27;20042;-66
2022/09/22 13:16:24;;;;;;;2.80;0.70;;;22.50;91.70;;;;;;5127657;27;20110;-67
2022/09/22 13:18:50;;;;;;;1.35;0.80;;;22.40;92.10;;;;;;5125481;27;20532;-67
2022/09/22 13:21:17;;;;;;;1.27;0.80;;;22.60;91.70;;;;;;5122862;27;20443;-65
2022/09/22 13:23:58;;;;;;;1.20;0.68;;;22.30;88.80;;;;;;5126808;27;20065;-64